createdAt,value
2018-06-20T00:09:47.267Z,1016.24
2018-06-20T00:19:47.243Z,1016.03
2018-06-20T00:29:47.284Z,1015.96
2018-06-20T00:39:47.248Z,1015.89
2018-06-20T00:49:47.230Z,1015.89
2018-06-20T00:59:47.282Z,1015.81
2018-06-20T01:09:47.252Z,1015.79
2018-06-20T01:19:47.245Z,1015.63
2018-06-20T01:29:47.241Z,1015.67
2018-06-20T01:39:47.252Z,1015.68
2018-06-20T01:49:47.349Z,1015.72
2018-06-20T01:59:47.251Z,1015.62
2018-06-20T02:09:47.255Z,1015.57
2018-06-20T02:19:47.319Z,1015.55
2018-06-20T02:29:47.237Z,1015.44
2018-06-20T02:39:47.323Z,1015.38
2018-06-20T02:49:47.293Z,1015.33
2018-06-20T02:59:47.353Z,1015.35
2018-06-20T03:09:47.245Z,1015.36
2018-06-20T03:19:48.300Z,1015.29
2018-06-20T03:29:47.361Z,1015.21
2018-06-20T03:39:47.307Z,1015.12
2018-06-20T03:49:47.350Z,1015.1
2018-06-20T03:59:47.338Z,1015.14
2018-06-20T04:09:47.259Z,1015.17
2018-06-20T04:19:47.379Z,1015.08
2018-06-20T04:29:47.306Z,1015.01
2018-06-20T04:39:47.256Z,1014.95
2018-06-20T04:49:47.246Z,1014.98
2018-06-20T04:59:47.306Z,1014.89
2018-06-20T05:09:47.263Z,1014.88
2018-06-20T05:19:47.495Z,1014.81
2018-06-20T05:29:47.273Z,1014.85
2018-06-20T05:39:47.273Z,1014.9
2018-06-20T05:49:47.352Z,1014.85
2018-06-20T05:59:47.275Z,1014.85
2018-06-20T06:09:47.282Z,1014.95
2018-06-20T06:19:47.349Z,1014.95
2018-06-20T06:29:47.317Z,1015.03
2018-06-20T06:39:47.395Z,1014.96
2018-06-20T06:49:47.427Z,1014.99
2018-06-20T06:59:47.315Z,1014.99
2018-06-20T07:09:47.350Z,1014.92
2018-06-20T07:19:47.295Z,1014.92
2018-06-20T07:29:47.297Z,1014.87
2018-06-20T07:39:47.334Z,1014.83
2018-06-20T07:49:47.316Z,1014.72
2018-06-20T07:59:47.299Z,1014.69
2018-06-20T08:09:47.305Z,1014.72
2018-06-20T08:19:47.312Z,1014.65
2018-06-20T08:29:47.311Z,1014.62
2018-06-20T08:39:47.308Z,1014.65
2018-06-20T08:49:47.302Z,1014.63
2018-06-20T08:59:47.311Z,1014.57
2018-06-20T09:09:47.296Z,1014.47
2018-06-20T09:19:47.331Z,1014.47
2018-06-20T09:29:47.320Z,1014.42
2018-06-20T09:39:47.413Z,1014.36
2018-06-20T09:49:47.324Z,1014.26
2018-06-20T09:59:48.315Z,1014.25
2018-06-20T10:09:47.324Z,1014.19
2018-06-20T10:19:47.353Z,1014.07
2018-06-20T10:29:47.360Z,1013.93
2018-06-20T10:39:47.341Z,1013.83
2018-06-20T10:49:47.364Z,1013.7
2018-06-20T10:59:47.368Z,1013.64
2018-06-20T11:09:47.342Z,1013.58
2018-06-20T11:19:47.388Z,1013.33
2018-06-20T11:29:47.459Z,1013.19
2018-06-20T11:39:47.444Z,1013.11
2018-06-20T11:49:47.540Z,1012.96
2018-06-20T11:59:47.384Z,1012.71
2018-06-20T12:09:47.363Z,1012.74
2018-06-20T12:19:47.364Z,1012.65
2018-06-20T12:29:47.382Z,1012.44
2018-06-20T12:39:47.375Z,1012.34
2018-06-20T12:49:47.415Z,1012.23
2018-06-20T12:59:47.394Z,1012.15
2018-06-20T13:09:47.364Z,1012.09
2018-06-20T13:19:47.398Z,1012.06
2018-06-20T13:29:47.391Z,1011.95
2018-06-20T13:39:47.442Z,1011.76
2018-06-20T13:49:47.419Z,1011.65
2018-06-20T13:59:47.409Z,1011.6
2018-06-20T14:09:47.394Z,1011.58
2018-06-20T14:19:47.495Z,1011.59
2018-06-20T14:29:47.568Z,1011.48
2018-06-20T14:39:47.417Z,1011.44
2018-06-20T14:49:47.410Z,1011.37
2018-06-20T14:59:47.428Z,1011.26
2018-06-20T15:09:47.410Z,1011.24
2018-06-20T15:19:47.425Z,1011.12
2018-06-20T15:29:47.399Z,1011
2018-06-20T15:39:47.427Z,1011
2018-06-20T15:49:47.433Z,1010.95
2018-06-20T15:59:47.442Z,1010.81
2018-06-20T16:09:47.474Z,1010.69
2018-06-20T16:19:47.448Z,1010.64
2018-06-20T16:29:47.432Z,1010.52
2018-06-20T16:39:47.453Z,1010.47
2018-06-20T16:49:47.442Z,1010.42
2018-06-20T16:59:47.450Z,1010.36
2018-06-20T17:09:47.435Z,1010.31
2018-06-20T17:19:47.449Z,1010.31
2018-06-20T17:29:47.460Z,1010.24
2018-06-20T17:39:47.439Z,1010.13
2018-06-20T17:49:47.461Z,1010.03
2018-06-20T17:59:47.561Z,1009.95
2018-06-20T18:09:47.454Z,1009.86
2018-06-20T18:19:47.493Z,1009.76
2018-06-20T18:29:47.510Z,1009.75
2018-06-20T18:39:47.590Z,1009.73
2018-06-20T18:49:47.442Z,1009.68
2018-06-20T18:59:47.474Z,1009.66
2018-06-20T19:09:47.454Z,1009.62
2018-06-20T19:19:47.484Z,1009.63
2018-06-20T19:29:47.467Z,1009.64
2018-06-20T19:39:47.474Z,1009.65
2018-06-20T19:49:47.506Z,1009.68
2018-06-20T19:59:47.461Z,1009.61
2018-06-20T20:09:47.638Z,1009.67
2018-06-20T20:19:47.455Z,1009.58
2018-06-20T20:29:47.462Z,1009.56
2018-06-20T20:39:47.475Z,1009.57
2018-06-20T20:49:47.470Z,1009.5
2018-06-20T20:59:47.471Z,1009.48
2018-06-20T21:09:47.489Z,1009.5
2018-06-20T21:19:47.507Z,1009.39
2018-06-20T21:29:47.457Z,1009.39
2018-06-20T21:39:47.473Z,1009.29
2018-06-20T21:49:47.486Z,1009.27
2018-06-20T21:59:47.482Z,1009.14
2018-06-20T22:11:15.001Z,1009.21
2018-06-20T22:21:15.030Z,1009.07
2018-06-20T22:31:15.009Z,1009.01
2018-06-20T22:41:15.050Z,1008.92
2018-06-20T22:51:15.124Z,1008.87
2018-06-20T23:01:15.034Z,1008.88
2018-06-20T23:11:15.059Z,1008.83
2018-06-20T23:21:15.048Z,1008.79
2018-06-20T23:31:15.081Z,1008.56
2018-06-20T23:41:15.067Z,1008.42
2018-06-20T23:51:15.080Z,1008.46
